createdAt,value
2024-02-13T00:01:32.567Z,56.49
2024-02-13T00:04:02.032Z,56.38
2024-02-13T00:06:30.305Z,56.50
2024-02-13T00:08:59.151Z,56.66
2024-02-13T00:11:27.448Z,56.86
2024-02-13T00:13:57.958Z,57.22
2024-02-13T00:16:26.896Z,57.40
2024-02-13T00:18:55.040Z,57.65
2024-02-13T00:21:24.564Z,57.32
2024-02-13T00:23:52.773Z,57.09
2024-02-13T00:26:20.806Z,57.23
2024-02-13T00:28:48.879Z,57.09
2024-02-13T00:31:16.913Z,57.20
2024-02-13T00:33:45.097Z,57.43
2024-02-13T00:36:16.865Z,57.18
2024-02-13T00:38:47.226Z,57.87
2024-02-13T00:41:15.410Z,57.97
2024-02-13T00:43:43.436Z,58.13
2024-02-13T00:46:12.163Z,58.30
2024-02-13T00:48:40.436Z,58.61
2024-02-13T00:51:08.588Z,59.04
2024-02-13T00:53:38.959Z,58.82
2024-02-13T00:56:09.503Z,59.18
2024-02-13T00:58:38.504Z,58.82
2024-02-13T01:01:06.699Z,58.82
2024-02-13T01:03:37.709Z,58.43
2024-02-13T01:06:09.152Z,58.59
2024-02-13T01:08:39.034Z,58.48
2024-02-13T01:11:09.144Z,58.70
2024-02-13T01:13:38.510Z,58.36
2024-02-13T01:16:06.751Z,58.23
2024-02-13T01:18:36.541Z,58.20
2024-02-13T01:21:06.588Z,58.09
2024-02-13T01:23:34.733Z,58.42
2024-02-13T01:26:04.347Z,58.43
2024-02-13T01:28:36.131Z,58.47
2024-02-13T01:31:04.522Z,58.51
2024-02-13T01:33:32.788Z,58.33
2024-02-13T01:36:01.462Z,58.39
2024-02-13T01:38:31.431Z,58.05
2024-02-13T01:40:59.612Z,58.18
2024-02-13T01:43:30.407Z,58.31
2024-02-13T01:45:59.829Z,58.38
2024-02-13T01:48:27.960Z,58.37
2024-02-13T01:50:57.347Z,58.35
2024-02-13T01:53:25.862Z,58.53
2024-02-13T01:55:53.857Z,58.53
2024-02-13T01:58:21.904Z,58.79
2024-02-13T02:00:50.002Z,58.51
2024-02-13T02:03:20.253Z,58.80
2024-02-13T02:05:48.395Z,58.88
2024-02-13T02:08:16.452Z,58.45
2024-02-13T02:10:45.795Z,58.65
2024-02-13T02:13:15.936Z,58.91
2024-02-13T02:15:44.064Z,58.92
2024-02-13T02:18:12.305Z,58.76
2024-02-13T02:20:41.819Z,59.03
2024-02-13T02:23:09.979Z,58.97
2024-02-13T02:25:39.372Z,58.72
2024-02-13T02:28:07.623Z,59.20
2024-02-13T02:30:35.659Z,59.16
2024-02-13T02:33:04.292Z,59.15
2024-02-13T02:35:32.389Z,58.95
2024-02-13T02:38:00.440Z,58.79
2024-02-13T02:40:29.217Z,58.53
2024-02-13T02:43:00.773Z,58.52
2024-02-13T02:45:29.132Z,58.41
2024-02-13T02:47:57.941Z,58.70
2024-02-13T02:50:26.462Z,58.32
2024-02-13T02:52:54.520Z,58.52
2024-02-13T02:55:23.431Z,58.58
2024-02-13T02:57:52.191Z,58.24
2024-02-13T03:00:22.326Z,58.31
2024-02-13T03:02:50.574Z,58.56
2024-02-13T03:05:19.099Z,58.75
2024-02-13T03:07:48.096Z,58.59
2024-02-13T03:10:16.199Z,58.60
2024-02-13T03:12:45.344Z,58.41
2024-02-13T03:15:14.015Z,58.73
2024-02-13T03:17:43.705Z,58.54
2024-02-13T03:20:14.012Z,58.64
2024-02-13T03:22:43.275Z,58.62
2024-02-13T03:25:11.624Z,58.94
2024-02-13T03:27:39.679Z,59.00
2024-02-13T03:30:09.580Z,58.91
2024-02-13T03:32:37.774Z,59.07
2024-02-13T03:35:08.147Z,58.84
2024-02-13T03:37:36.391Z,58.63
2024-02-13T03:40:07.574Z,58.67
2024-02-13T03:42:37.489Z,58.36
2024-02-13T03:45:06.506Z,58.41
2024-02-13T03:47:34.723Z,58.27
2024-02-13T03:50:03.868Z,58.61
2024-02-13T03:52:35.151Z,58.56
2024-02-13T03:55:04.305Z,58.20
2024-02-13T03:57:32.598Z,58.33
2024-02-13T04:00:01.604Z,58.25
2024-02-13T04:02:34.325Z,58.42
2024-02-13T04:05:02.451Z,58.56
2024-02-13T04:07:30.473Z,58.44
2024-02-13T04:10:00.888Z,58.47
2024-02-13T04:12:28.907Z,58.57
2024-02-13T04:14:57.215Z,58.38
2024-02-13T04:17:26.228Z,58.08
2024-02-13T04:19:54.710Z,58.46
2024-02-13T04:22:22.828Z,58.05
2024-02-13T04:24:51.256Z,58.09
2024-02-13T04:27:22.318Z,57.98
2024-02-13T04:29:50.587Z,58.36
2024-02-13T04:32:18.742Z,57.75
2024-02-13T04:34:46.840Z,57.71
2024-02-13T04:37:14.858Z,57.87
2024-02-13T04:39:42.880Z,58.09
2024-02-13T04:42:12.359Z,57.89
2024-02-13T04:44:41.888Z,57.84
2024-02-13T04:47:09.916Z,57.58
2024-02-13T04:49:38.006Z,57.44
2024-02-13T04:52:06.732Z,58.00
2024-02-13T04:54:34.828Z,57.82
2024-02-13T04:57:02.815Z,57.39
2024-02-13T04:59:38.738Z,57.86
2024-02-13T05:02:08.247Z,57.60
2024-02-13T05:04:53.805Z,57.52
2024-02-13T05:07:21.833Z,57.92
2024-02-13T05:09:49.962Z,57.90
2024-02-13T05:12:17.960Z,57.43
2024-02-13T05:14:46.022Z,57.67
2024-02-13T05:17:16.085Z,57.63
2024-02-13T05:19:44.114Z,57.86
2024-02-13T05:22:12.103Z,57.52
2024-02-13T05:24:40.455Z,57.35
2024-02-13T05:27:09.283Z,57.65
2024-02-13T05:29:37.402Z,57.66
2024-02-13T05:32:05.735Z,57.28
2024-02-13T05:34:35.479Z,57.25
2024-02-13T05:37:03.577Z,57.47
2024-02-13T05:39:31.555Z,57.57
2024-02-13T05:41:59.606Z,57.42
2024-02-13T05:44:27.587Z,57.52
2024-02-13T05:46:57.549Z,57.53
2024-02-13T05:49:25.656Z,57.26
2024-02-13T05:51:56.457Z,57.69
2024-02-13T05:54:24.517Z,57.63
2024-02-13T05:56:52.635Z,57.32
2024-02-13T05:59:25.046Z,57.63
2024-02-13T06:01:53.901Z,57.40
2024-02-13T06:04:22.737Z,57.69
2024-02-13T06:06:50.706Z,57.51
2024-02-13T06:09:22.488Z,57.69
2024-02-13T06:11:50.876Z,57.72
2024-02-13T06:14:20.137Z,57.51
2024-02-13T06:16:48.462Z,57.70
2024-02-13T06:19:16.609Z,57.81
2024-02-13T06:21:44.731Z,57.63
2024-02-13T06:24:12.845Z,58.19
2024-02-13T06:26:42.568Z,57.97
2024-02-13T06:29:10.733Z,58.04
2024-02-13T06:31:38.843Z,57.79
2024-02-13T06:34:06.928Z,58.18
2024-02-13T06:36:34.975Z,58.18
2024-02-13T06:39:04.200Z,58.26
2024-02-13T06:41:32.377Z,58.42
2024-02-13T06:44:04.382Z,58.48
2024-02-13T06:46:32.404Z,58.42
2024-02-13T06:49:00.599Z,58.23
2024-02-13T06:51:30.080Z,58.56
2024-02-13T06:54:01.917Z,58.43
2024-02-13T06:56:30.139Z,58.47
2024-02-13T06:58:58.159Z,58.89
2024-02-13T07:01:28.057Z,58.98
2024-02-13T07:03:56.077Z,58.84
2024-02-13T07:06:37.872Z,58.92
2024-02-13T07:09:13.045Z,58.95
2024-02-13T07:11:41.123Z,58.98
2024-02-13T07:14:10.050Z,59.11
2024-02-13T07:16:41.520Z,59.06
2024-02-13T07:19:11.301Z,59.42
2024-02-13T07:21:39.578Z,59.49
2024-02-13T07:24:08.548Z,59.59
2024-02-13T07:26:37.284Z,59.56
2024-02-13T07:29:05.430Z,59.59
2024-02-13T07:31:36.782Z,59.65
2024-02-13T07:34:06.429Z,60.10
2024-02-13T07:36:34.609Z,60.25
2024-02-13T07:39:02.899Z,60.01
2024-02-13T07:41:30.953Z,59.84
2024-02-13T07:44:00.230Z,60.13
2024-02-13T07:46:28.274Z,60.30
2024-02-13T07:48:56.696Z,60.50
2024-02-13T07:51:26.227Z,60.71
2024-02-13T07:53:54.310Z,60.45
2024-02-13T07:56:29.846Z,60.86
2024-02-13T07:58:58.932Z,60.81
2024-02-13T08:01:26.982Z,60.65
2024-02-13T08:03:55.833Z,60.43
2024-02-13T08:06:24.102Z,61.19
2024-02-13T08:08:53.632Z,61.17
2024-02-13T08:11:22.805Z,61.18
2024-02-13T08:13:50.885Z,60.99
2024-02-13T08:16:20.141Z,61.39
2024-02-13T08:18:51.389Z,61.44
2024-02-13T08:21:19.756Z,61.56
2024-02-13T08:23:47.819Z,61.23
2024-02-13T08:26:17.284Z,61.62
2024-02-13T08:28:45.632Z,61.30
2024-02-13T08:31:13.672Z,61.91
2024-02-13T08:33:42.273Z,61.39
2024-02-13T08:36:10.695Z,61.63
2024-02-13T08:38:44.683Z,61.56
2024-02-13T08:41:14.731Z,61.61
2024-02-13T08:43:44.233Z,61.87
2024-02-13T08:46:14.534Z,62.07
2024-02-13T08:48:43.036Z,61.76
2024-02-13T08:51:11.336Z,62.00
2024-02-13T08:53:39.482Z,62.22
2024-02-13T08:56:07.954Z,61.91
2024-02-13T08:58:36.177Z,62.29
2024-02-13T09:01:06.166Z,62.32
2024-02-13T09:03:35.217Z,62.49
2024-02-13T09:06:05.856Z,62.11
2024-02-13T09:08:34.725Z,62.46
2024-02-13T09:11:02.765Z,62.60
2024-02-13T09:13:31.331Z,62.57
2024-02-13T09:15:59.383Z,62.74
2024-02-13T09:18:28.953Z,62.95
2024-02-13T09:20:59.987Z,62.71
2024-02-13T09:23:29.225Z,62.76
2024-02-13T09:25:57.314Z,62.97
2024-02-13T09:28:25.477Z,63.41
2024-02-13T09:30:53.491Z,63.12
2024-02-13T09:33:22.595Z,63.16
2024-02-13T09:35:52.471Z,63.48
2024-02-13T09:38:20.583Z,63.17
2024-02-13T09:40:50.087Z,63.49
2024-02-13T09:43:19.170Z,63.19
2024-02-13T09:45:47.380Z,63.44
2024-02-13T09:48:21.121Z,63.61
2024-02-13T09:50:51.745Z,63.55
2024-02-13T09:53:24.122Z,63.33
2024-02-13T09:55:52.307Z,63.86
2024-02-13T09:58:21.736Z,63.64
2024-02-13T10:00:50.115Z,63.69
2024-02-13T10:03:18.519Z,63.98
2024-02-13T10:05:46.689Z,63.62
2024-02-13T10:08:19.019Z,63.95
2024-02-13T10:10:47.397Z,63.89
2024-02-13T10:13:15.647Z,64.03
2024-02-13T10:15:45.056Z,64.01
2024-02-13T10:18:14.945Z,63.77
2024-02-13T10:20:43.176Z,64.19
2024-02-13T10:23:14.429Z,64.15
2024-02-13T10:25:44.813Z,64.42
2024-02-13T10:28:13.523Z,64.29
2024-02-13T10:30:41.832Z,64.36
2024-02-13T10:33:09.901Z,64.49
2024-02-13T10:35:38.758Z,64.34
2024-02-13T10:38:08.747Z,64.46
2024-02-13T10:40:40.562Z,64.50
2024-02-13T10:43:13.583Z,64.43
2024-02-13T10:45:41.875Z,64.71
2024-02-13T10:48:15.594Z,64.47
2024-02-13T10:50:44.273Z,64.53
2024-02-13T10:53:15.508Z,64.45
2024-02-13T10:55:44.196Z,64.59
2024-02-13T10:58:24.176Z,64.65
2024-02-13T11:00:57.097Z,64.66
2024-02-13T11:03:25.674Z,64.63
2024-02-13T11:05:54.310Z,64.52
2024-02-13T11:08:22.740Z,64.29
2024-02-13T11:10:51.183Z,64.67
2024-02-13T11:13:21.822Z,64.74
2024-02-13T11:15:50.248Z,64.51
2024-02-13T11:18:18.481Z,64.54
2024-02-13T11:20:47.509Z,64.74
2024-02-13T11:23:17.174Z,64.68
2024-02-13T11:25:57.610Z,64.80
2024-02-13T11:28:33.757Z,64.66
2024-02-13T11:31:01.784Z,64.43
2024-02-13T11:33:30.052Z,64.64
2024-02-13T11:36:00.096Z,64.65
2024-02-13T11:38:30.237Z,64.91
2024-02-13T11:40:58.495Z,64.94
2024-02-13T11:43:28.449Z,64.73
2024-02-13T11:45:57.764Z,64.82
2024-02-13T11:48:30.489Z,65.01
2024-02-13T11:51:03.469Z,65.50
2024-02-13T11:53:32.471Z,65.97
2024-02-13T11:56:00.631Z,66.10
2024-02-13T11:58:32.676Z,66.30
2024-02-13T12:01:02.261Z,66.04
2024-02-13T12:03:30.572Z,65.96
2024-02-13T12:05:59.005Z,65.75
2024-02-13T12:08:29.049Z,65.96
2024-02-13T12:10:58.960Z,65.95
2024-02-13T12:13:26.992Z,66.28
2024-02-13T12:15:58.713Z,66.05
2024-02-13T12:18:28.986Z,66.05
2024-02-13T12:20:58.092Z,66.13
2024-02-13T12:23:26.756Z,66.40
2024-02-13T12:26:00.632Z,66.30
2024-02-13T12:28:29.469Z,66.29
2024-02-13T12:31:00.388Z,66.36
2024-02-13T12:33:30.065Z,66.43
2024-02-13T12:36:02.610Z,66.50
2024-02-13T12:38:31.870Z,66.73
2024-02-13T12:41:00.197Z,66.86
2024-02-13T12:43:29.695Z,67.01
2024-02-13T12:46:00.006Z,67.14
2024-02-13T12:48:35.241Z,67.45
2024-02-13T12:51:10.287Z,67.27
2024-02-13T12:53:40.832Z,67.40
2024-02-13T12:56:10.978Z,67.58
2024-02-13T12:58:39.280Z,67.71
2024-02-13T13:01:11.293Z,67.82
2024-02-13T13:03:40.274Z,67.73
2024-02-13T13:06:12.686Z,67.85
2024-02-13T13:08:43.280Z,67.89
2024-02-13T13:11:11.756Z,67.94
2024-02-13T13:13:40.157Z,68.13
2024-02-13T13:16:12.556Z,68.04
2024-02-13T13:18:40.764Z,68.33
2024-02-13T13:21:09.751Z,68.42
2024-02-13T13:23:39.321Z,68.83
2024-02-13T13:26:09.836Z,68.88
2024-02-13T13:28:39.785Z,68.77
2024-02-13T13:31:10.078Z,69.01
2024-02-13T13:33:38.867Z,69.14
2024-02-13T13:36:08.942Z,69.20
2024-02-13T13:38:39.558Z,69.20
2024-02-13T13:41:08.411Z,69.33
2024-02-13T13:43:36.518Z,69.41
2024-02-13T13:46:05.375Z,69.32
2024-02-13T13:48:36.159Z,69.27
2024-02-13T13:51:04.948Z,69.60
2024-02-13T13:53:33.332Z,69.33
2024-02-13T13:56:01.500Z,69.59
2024-02-13T13:58:30.876Z,69.92
2024-02-13T14:00:58.998Z,69.89
2024-02-13T14:03:27.069Z,70.07
2024-02-13T14:05:56.609Z,70.16
2024-02-13T14:08:24.765Z,69.90
2024-02-13T14:10:53.729Z,70.00
2024-02-13T14:13:21.747Z,69.78
2024-02-13T14:15:50.829Z,69.77
2024-02-13T14:18:20.919Z,69.95
2024-02-13T14:20:49.108Z,69.88
2024-02-13T14:23:21.762Z,69.92
2024-02-13T14:25:50.386Z,69.69
2024-02-13T14:28:19.161Z,69.94
2024-02-13T14:30:47.566Z,70.12
2024-02-13T14:33:16.449Z,69.73
2024-02-13T14:35:48.753Z,70.15
2024-02-13T14:38:18.644Z,69.67
2024-02-13T14:40:47.034Z,70.01
2024-02-13T14:43:16.523Z,69.83
2024-02-13T14:45:45.528Z,69.85
2024-02-13T14:48:16.356Z,69.51
2024-02-13T14:50:45.863Z,70.02
2024-02-13T14:53:18.334Z,69.91
2024-02-13T14:55:47.981Z,70.10
2024-02-13T14:58:23.170Z,70.32
2024-02-13T15:00:59.187Z,70.35
2024-02-13T15:03:27.777Z,70.33
2024-02-13T15:05:55.906Z,70.52
2024-02-13T15:08:24.190Z,70.55
2024-02-13T15:10:53.705Z,70.62
2024-02-13T15:13:22.572Z,70.62
2024-02-13T15:15:52.239Z,70.73
2024-02-13T15:18:23.514Z,70.62
2024-02-13T15:20:52.192Z,70.62
2024-02-13T15:23:20.419Z,70.52
2024-02-13T15:25:48.575Z,70.53
2024-02-13T15:28:18.442Z,70.46
2024-02-13T15:30:46.810Z,70.54
2024-02-13T15:33:16.039Z,70.37
2024-02-13T15:35:53.053Z,70.82
2024-02-13T15:38:38.945Z,70.45
2024-02-13T15:41:24.327Z,70.59
2024-02-13T15:44:11.465Z,70.57
2024-02-13T15:46:56.958Z,70.72
2024-02-13T15:49:25.257Z,70.62
2024-02-13T15:51:53.682Z,70.45
2024-02-13T15:54:21.846Z,70.34
2024-02-13T15:56:50.899Z,70.41
2024-02-13T15:59:20.553Z,70.31
2024-02-13T16:01:48.635Z,70.28
2024-02-13T16:04:19.538Z,70.22
2024-02-13T16:06:48.453Z,70.43
2024-02-13T16:09:16.791Z,70.34
2024-02-13T16:11:45.114Z,70.41
2024-02-13T16:14:14.379Z,70.65
2024-02-13T16:16:44.236Z,70.41
2024-02-13T16:19:12.404Z,70.46
2024-02-13T16:21:43.191Z,70.18
2024-02-13T16:24:11.964Z,70.22
2024-02-13T16:26:50.060Z,70.26
2024-02-13T16:29:21.113Z,70.09
2024-02-13T16:31:54.380Z,70.13
2024-02-13T16:34:23.090Z,69.95
2024-02-13T16:36:51.353Z,70.06
2024-02-13T16:39:19.619Z,70.27
2024-02-13T16:41:47.818Z,70.25
2024-02-13T16:44:24.775Z,69.99
2024-02-13T16:47:00.460Z,70.09
2024-02-13T16:49:28.671Z,69.91
2024-02-13T16:51:56.718Z,69.70
2024-02-13T16:54:24.773Z,69.92
2024-02-13T16:56:53.622Z,69.71
2024-02-13T16:59:21.720Z,69.56
2024-02-13T17:01:49.765Z,69.65
2024-02-13T17:04:19.371Z,69.70
2024-02-13T17:06:47.983Z,70.05
2024-02-13T17:09:17.036Z,69.70
2024-02-13T17:11:45.224Z,69.78
2024-02-13T17:14:13.361Z,69.64
2024-02-13T17:16:41.400Z,69.59
2024-02-13T17:19:14.576Z,69.51
2024-02-13T17:21:44.424Z,69.60
2024-02-13T17:24:12.858Z,69.63
2024-02-13T17:26:41.370Z,69.56
2024-02-13T17:29:09.839Z,69.59
2024-02-13T17:31:37.918Z,69.56
2024-02-13T17:34:06.220Z,69.46
2024-02-13T17:36:34.396Z,69.21
2024-02-13T17:39:06.506Z,69.39
2024-02-13T17:41:34.695Z,70.12
2024-02-13T17:44:02.773Z,70.29
2024-02-13T17:46:30.840Z,70.15
2024-02-13T17:48:59.149Z,70.24
2024-02-13T17:51:27.332Z,70.25
2024-02-13T17:53:56.392Z,70.45
2024-02-13T17:56:26.238Z,70.07
2024-02-13T17:58:55.075Z,70.12
2024-02-13T18:01:23.250Z,69.95
2024-02-13T18:03:53.159Z,69.95
2024-02-13T18:06:21.435Z,70.05
2024-02-13T18:08:49.454Z,69.95
2024-02-13T18:11:17.466Z,69.96
2024-02-13T18:13:47.398Z,70.08
2024-02-13T18:16:15.800Z,70.00
2024-02-13T18:18:44.091Z,69.92
2024-02-13T18:21:12.462Z,69.98
2024-02-13T18:23:40.629Z,69.75
2024-02-13T18:26:08.664Z,70.14
2024-02-13T18:28:38.449Z,70.25
2024-02-13T18:31:08.205Z,70.19
2024-02-13T18:33:36.350Z,70.07
2024-02-13T18:36:05.881Z,70.03
2024-02-13T18:38:33.957Z,70.20
2024-02-13T18:41:02.065Z,70.06
2024-02-13T18:43:30.171Z,70.05
2024-02-13T18:45:58.206Z,70.06
2024-02-13T18:48:27.999Z,70.18
2024-02-13T18:50:56.138Z,69.94
2024-02-13T18:53:26.641Z,70.03
2024-02-13T18:55:55.322Z,69.97
2024-02-13T18:58:23.377Z,69.62
2024-02-13T19:00:51.879Z,69.97
2024-02-13T19:03:21.436Z,69.98
2024-02-13T19:05:52.152Z,69.76
2024-02-13T19:08:20.878Z,69.58
2024-02-13T19:10:49.834Z,69.81
2024-02-13T19:13:17.984Z,69.75
2024-02-13T19:15:46.487Z,69.36
2024-02-13T19:18:15.098Z,69.37
2024-02-13T19:20:43.898Z,69.23
2024-02-13T19:23:13.368Z,69.51
2024-02-13T19:25:41.444Z,69.38
2024-02-13T19:28:09.916Z,69.17
2024-02-13T19:30:38.040Z,69.29
2024-02-13T19:33:08.089Z,69.19
2024-02-13T19:35:36.340Z,69.50
2024-02-13T19:38:04.480Z,69.38
2024-02-13T19:40:34.104Z,69.20
2024-02-13T19:43:02.163Z,69.42
2024-02-13T19:45:30.256Z,69.27
2024-02-13T19:47:58.571Z,69.32
2024-02-13T19:50:26.724Z,69.18
2024-02-13T19:52:54.848Z,69.44
2024-02-13T19:55:22.893Z,69.42
2024-02-13T19:57:54.554Z,69.57
2024-02-13T20:00:23.366Z,69.46
2024-02-13T20:02:51.392Z,69.57
2024-02-13T20:05:19.718Z,69.43
2024-02-13T20:07:48.028Z,69.52
2024-02-13T20:10:17.415Z,69.55
2024-02-13T20:12:45.791Z,69.52
2024-02-13T20:15:14.627Z,69.66
2024-02-13T20:17:45.152Z,69.49
2024-02-13T20:20:15.970Z,69.59
2024-02-13T20:22:46.601Z,69.32
2024-02-13T20:25:15.236Z,69.29
2024-02-13T20:27:44.725Z,69.37
2024-02-13T20:30:15.622Z,69.38
2024-02-13T20:32:48.017Z,69.64
2024-02-13T20:35:16.215Z,69.39
2024-02-13T20:37:44.339Z,69.49
2024-02-13T20:40:13.250Z,69.53
2024-02-13T20:42:43.411Z,69.56
2024-02-13T20:45:20.605Z,69.57
2024-02-13T20:47:53.486Z,69.59
2024-02-13T20:50:22.341Z,69.72
2024-02-13T20:52:50.604Z,69.57
2024-02-13T20:55:20.194Z,69.81
2024-02-13T20:57:49.281Z,69.49
2024-02-13T21:00:18.753Z,69.73
2024-02-13T21:02:49.316Z,69.78
2024-02-13T21:05:21.942Z,69.81
2024-02-13T21:07:50.303Z,69.84
2024-02-13T21:10:18.598Z,69.83
2024-02-13T21:12:46.865Z,69.83
2024-02-13T21:15:14.974Z,69.89
2024-02-13T21:17:43.465Z,69.80
2024-02-13T21:20:12.913Z,69.75
2024-02-13T21:22:59.820Z,69.86
2024-02-13T21:25:28.050Z,69.91
2024-02-13T21:27:56.275Z,69.97
2024-02-13T21:30:24.307Z,69.92
2024-02-13T21:32:53.175Z,69.86
2024-02-13T21:35:22.722Z,69.98
2024-02-13T21:37:52.202Z,70.13
2024-02-13T21:40:20.375Z,70.11
2024-02-13T21:42:50.477Z,70.17
2024-02-13T21:45:18.573Z,70.17
2024-02-13T21:47:46.932Z,70.21
2024-02-13T21:50:15.583Z,70.14
2024-02-13T21:52:43.892Z,70.15
2024-02-13T21:55:13.362Z,70.32
2024-02-13T21:57:41.383Z,70.13
2024-02-13T22:00:11.643Z,70.36
2024-02-13T22:02:39.866Z,70.37
2024-02-13T22:05:08.295Z,70.47
2024-02-13T22:07:38.685Z,70.38
2024-02-13T22:10:09.120Z,70.52
2024-02-13T22:12:38.799Z,70.50
2024-02-13T22:15:11.609Z,70.36
2024-02-13T22:17:40.154Z,70.42
2024-02-13T22:20:09.938Z,70.42
2024-02-13T22:22:38.183Z,70.28
2024-02-13T22:25:06.896Z,70.21
2024-02-13T22:27:34.886Z,70.32
2024-02-13T22:30:04.661Z,70.33
2024-02-13T22:32:32.969Z,70.32
2024-02-13T22:35:01.314Z,70.60
2024-02-13T22:37:30.411Z,70.42
2024-02-13T22:39:59.766Z,70.56
2024-02-13T22:42:27.936Z,70.51
2024-02-13T22:44:55.966Z,70.26
2024-02-13T22:47:25.546Z,70.38
2024-02-13T22:49:53.838Z,70.30
2024-02-13T22:52:21.932Z,70.35
2024-02-13T22:54:49.908Z,70.06
2024-02-13T22:57:17.980Z,70.28
2024-02-13T22:59:46.556Z,70.44
2024-02-13T23:02:14.648Z,70.51
2024-02-13T23:04:50.166Z,70.35
2024-02-13T23:07:19.732Z,69.98
2024-02-13T23:09:47.738Z,70.21
2024-02-13T23:12:16.881Z,70.00
2024-02-13T23:14:45.088Z,70.03
2024-02-13T23:17:13.078Z,70.09
2024-02-13T23:19:41.120Z,69.89
2024-02-13T23:22:10.659Z,69.83
2024-02-13T23:24:39.375Z,69.97
2024-02-13T23:27:08.253Z,69.95
2024-02-13T23:29:35.530Z,69.91
2024-02-13T23:32:03.547Z,70.12
2024-02-13T23:34:32.804Z,70.27
2024-02-13T23:37:00.851Z,70.22
2024-02-13T23:39:30.236Z,70.33
2024-02-13T23:41:58.290Z,70.23
2024-02-13T23:44:26.579Z,70.36
2024-02-13T23:46:54.621Z,70.29
2024-02-13T23:49:22.676Z,70.36
2024-02-13T23:51:51.798Z,70.49
2024-02-13T23:54:19.888Z,70.64
2024-02-13T23:56:49.401Z,70.32
2024-02-13T23:59:17.503Z,70.20
